Preview of NWS' New Version of Forecast
This preview is not operational and should not be used for support decisions.
Latest weather observations around

BENTON (BETC1)

Using English Units (Switch to International System of Units)
Date/ Time (PDT) Wind (mph) Vis. (mi) Weather Sky Cond. Temp (°F) Rel. Humidity Wind Chill (°F) Heat Index (°F) Pressure Precip. (in)
Air Dwpt 6 hour Altimeter (inHg) Sea level (inHg) 1 hr 3 hr 6 hr
Max Min
Jun 21 10:00 E 2   Clear   89 4     4%   84          
Jun 21 09:00 N 2   Clear   84 13     7%   80          
Jun 21 08:00 NE 1   Clear   73 19     13%   71          
Jun 21 07:00 N 2   Clear   56 21     25%              
Jun 21 06:00 NNW 1   Clear   44 17     33%              
Jun 21 05:00 NE 3   Clear   45 18     33% 44            
Jun 21 04:00 ENE 1   Clear   46 19     33%              
Jun 21 03:00 NNE 3   Clear   49 20     31% 49            
Jun 21 02:00 NW 3   Clear   54 20     26%              
Jun 21 01:00 NNE 3   Clear   54 21     27%              
Jun 21 00:00 NNW 2   Clear   64 23     21%              
Jun 20 23:00 NE 5   Clear   70 22     16%              
Jun 20 22:00 ENE 6   Clear   71 21     15%   69          
Jun 20 21:00 SSE 5   Clear   77 24     14%   75          
Jun 20 20:00 WSW 8   Clear   84 24     11%   81          
Jun 20 19:00 W 15   Clear   90 21     8%   85          
Jun 20 18:00 WSW 13   Clear   93 20     7%   87          
Jun 20 17:00 WSW 11   Clear   96 18     6%   89          
Jun 20 16:00 SW 9   Clear   96 22     7%   90          
Jun 20 15:00 SSE 11   Clear   96 22     7%   90          
Jun 20 14:00 SSE 17   Clear   94 27     9%   88          
Jun 20 13:00 S 17   Clear   90 31     12%   86          
Jun 20 12:00 S 17   Clear   88 33     14%   84          
Jun 20 11:00 S 15   Clear   86 33     15%   83          
Jun 20 10:00 NW 1   Clear   84 36     18%   81          
Jun 20 09:00 NNE 1   Clear   79 37     22%   78          
Jun 20 08:00 Calm   Clear   71 37     29%   69          
Jun 20 07:00 ENE 1   Clear   63 37     38%              
Jun 20 06:00 NNE 4   Clear   50 34     53%              
Jun 20 05:00 NE 1   Clear   51 33     50%              
Jun 20 04:00 NNW 3   Clear   54 32     43%              
Jun 20 03:00 NE 3   Clear   55 32     42%              
Jun 20 02:00 NE 7   Clear   59 33     38%              
Jun 20 01:00 NNE 5   Clear   60 34     38%              
Jun 20 00:00 N 6   Clear   63 33     33%              
Jun 19 23:00 N 7   Clear   68 35     29%              
Jun 19 22:00 NNW 7   Clear   72 34     25%   70          
Jun 19 21:00 N 12   Clear   75 35     23%   73          
Jun 19 20:00 NNE 13   Clear   80 34     19%   79          
Jun 19 19:00 NE 15   Clear   85 34     16%   82          
Jun 19 18:00 N 6   Clear   89 34     14%   85          
Jun 19 17:00 S 5   Clear   89 34     14%   85          
Jun 19 16:00 S 7   Clear   90 34     14%   86          
Jun 19 15:00 WNW 4   Clear   87 34     15%   83          
Jun 19 14:00 NW 4   Clear   85 34     16%   82          
Jun 19 13:00 S 3   Clear   84 36     18%   81          
Jun 19 12:00 WSW 6   Clear   80 37     21%   79          
Jun 19 11:00 WNW 4   Clear   76 38     25%   74          
Jun 19 10:00 NE 6   Clear   73 38     28%   71          
Jun 19 09:00 NW 6   Clear   69 39     33%              
Jun 19 08:00 NNW 5   Clear   66 40     38%              
Jun 19 07:00 NNW 5   Clear   61 39     44%              
Jun 19 06:00 N 6   Clear   51 35     54%              
Jun 19 05:00 N 6   Clear   52 35     53%              
Jun 19 04:00 N 5   Clear   53 34     49%              
Jun 19 03:00 NNW 3   Clear   54 35     48%              
Jun 19 02:00 NNW 4   Clear   56 34     43%              
Jun 19 01:00 NNW 6   Clear   59 34     39%              
Jun 19 00:00 N 8   Clear   61 32     34%              
Jun 18 23:00 N 8   Clear   63 32     31%              
Jun 18 22:00 NNE 12   Clear   66 31     27%              
Jun 18 21:00 NNE 10   Clear   67 30     25%              
Jun 18 20:00 N 13   Clear   71 30     22%   69          
Jun 18 19:00 N 13   Clear   77 30     18%   75          
Jun 18 18:00 NNE 13   Clear   79 30     17%   77          
Jun 18 17:00 NNW 8   Clear   82 31     16%   80          
Jun 18 16:00 NNW 6   Clear   82 30     15%   80          
Jun 18 15:00 E 4   Clear   80 30     16%   78          
Jun 18 14:00 ENE 6   Clear   79 30     17%   77          
Jun 18 13:00 SSE 6   Clear   77 32     19%   75          
Jun 18 12:00 SE 3   Clear   76 34     22%   74          
Jun 18 11:00 W 6   Clear   71 32     24%   69          
May 15 11:00 WNW 3   Clear   67 37     33%              
May 15 01:00 NNE 2   Clear   46 45     96%              
May 14 03:00 W 3   Clear   45 42     90% 44            
May 13 20:00 NE 7   Clear   50 43     78% 47            
May 13 15:00 ENE 9   Clear   65 37     35%              
May 13 14:00 NNE 6   Clear   63 36     37%              
May 13 12:00 NW 4   Clear   62 35     37%              
May 12 12:00 ESE 4   Clear   61 21     21%              
May 12 10:00 NE 5   Clear   55 24     30%              
May 11 23:00 N 8   Clear   43 17     35% 38            
May 11 19:00 N 15   Clear   51 17     26%              
May 11 18:00 N 15   Clear   52 21     29%              
May 11 15:00 N 14   Clear   58 28     31%              
May 11 13:00     Clear   67 28     23%              
May 11 10:00 N 13   Clear   67 26     21%              
Jun 11 14:00 WSW 19   Clear   66 21     18%              
Jun 11 04:00 NW 3   Clear   42 17     36% 41            
Jun 10 18:00 SW 16   Clear   76 18     11%   74          
Jun 09 12:00 SSW 9   Clear   79 33     19%   77          
Jun 08 13:00 S 14   Clear   78 21     12%   76          
Jun 08 08:00 SW 1   Clear   60 37     42%              
Notice The following observation data may not be complete
Jun 08 07:00 ENE 2   Clear     32      %              
Jun 07 21:00 S 4   Clear   70 26     19%              
Jun 07 17:00 S 17   Clear   87 19     8%   83          
Jun 07 15:00 S 16   Clear   89 13     6%   84